createdAt,value
2017-12-10T00:00:37.906Z,99238.20
2017-12-10T00:03:10.713Z,99235.57
2017-12-10T00:05:44.524Z,99230.70
2017-12-10T00:08:17.938Z,99228.51
2017-12-10T00:10:51.446Z,99213.59
2017-12-10T00:13:25.489Z,99208.29
2017-12-10T00:15:59.336Z,99207.23
2017-12-10T00:18:32.764Z,99207.66
2017-12-10T00:21:06.615Z,99208.42
2017-12-10T00:23:40.610Z,99210.75
2017-12-10T00:26:14.467Z,99192.99
2017-12-10T00:28:47.979Z,99190.05
2017-12-10T00:31:21.846Z,99176.92
2017-12-10T00:33:55.280Z,99180.08
2017-12-10T00:36:30.575Z,99176.95
2017-12-10T00:39:04.099Z,99169.45
2017-12-10T00:41:37.603Z,99171.82
2017-12-10T00:44:11.046Z,99173.52
2017-12-10T00:46:44.813Z,99174.18
2017-12-10T00:49:18.262Z,99164.16
2017-12-10T00:51:51.859Z,99155.13
2017-12-10T00:54:25.379Z,99143.33
2017-12-10T00:56:59.917Z,99133.70
2017-12-10T00:59:33.294Z,99124.95
2017-12-10T01:02:07.346Z,99115.50
2017-12-10T01:04:41.428Z,99110.76
2017-12-10T01:07:15.176Z,99108.67
2017-12-10T01:09:48.637Z,99098.25
2017-12-10T01:12:22.391Z,99088.41
2017-12-10T01:14:55.825Z,99087.80
2017-12-10T01:17:29.638Z,99085.23
2017-12-10T01:20:03.161Z,99079.14
2017-12-10T01:22:36.668Z,99075.08
2017-12-10T01:25:10.181Z,99068.63
2017-12-10T01:27:43.939Z,99071.45
2017-12-10T01:30:17.775Z,99070.22
2017-12-10T01:32:51.532Z,99058.34
2017-12-10T01:35:31.527Z,99067.09
2017-12-10T01:38:05.355Z,99060.39
2017-12-10T01:40:38.776Z,99050.67
2017-12-10T01:43:12.627Z,99049.97
2017-12-10T01:45:46.637Z,99053.89
2017-12-10T01:48:20.385Z,99047.78
2017-12-10T01:50:54.262Z,99039.69
2017-12-10T01:53:28.851Z,99043.36
2017-12-10T01:56:02.351Z,99033.66
2017-12-10T01:58:35.901Z,99027.34
2017-12-10T02:01:09.313Z,99008.30
2017-12-10T02:03:43.190Z,99000.88
2017-12-10T02:06:16.621Z,98994.29
2017-12-10T02:08:50.154Z,98992.95
2017-12-10T02:11:23.594Z,98995.94
2017-12-10T02:13:57.997Z,98990.52
2017-12-10T02:16:31.724Z,98984.59
2017-12-10T02:19:05.316Z,98973.66
2017-12-10T02:21:38.819Z,98971.63
2017-12-10T02:24:12.404Z,98967.66
2017-12-10T02:26:45.644Z,98968.66
2017-12-10T02:29:19.258Z,98958.75
2017-12-10T02:31:52.854Z,98966.63
2017-12-10T02:34:26.775Z,98954.38
2017-12-10T02:36:59.971Z,98957.91
2017-12-10T02:39:33.541Z,98956.85
2017-12-10T02:42:07.049Z,98952.23
2017-12-10T02:44:40.715Z,98945.30
2017-12-10T02:47:13.935Z,98942.20
2017-12-10T02:49:47.498Z,98932.30
2017-12-10T02:52:21.053Z,98927.50
2017-12-10T02:54:55.437Z,98922.48
2017-12-10T02:57:28.673Z,98908.97
2017-12-10T03:00:02.471Z,98901.63
2017-12-10T03:02:36.548Z,98893.16
2017-12-10T03:05:10.104Z,98885.06
2017-12-10T03:07:43.322Z,98877.59
2017-12-10T03:10:16.645Z,98875.58
2017-12-10T03:12:49.882Z,98871.50
2017-12-10T03:15:23.513Z,98864.70
2017-12-10T03:17:56.893Z,98856.97
2017-12-10T03:20:31.242Z,98850.66
2017-12-10T03:23:04.501Z,98841.75
2017-12-10T03:25:38.053Z,98839.10
2017-12-10T03:28:11.565Z,98840.52
2017-12-10T03:30:45.595Z,98833.97
2017-12-10T03:33:18.811Z,98835.09
2017-12-10T03:35:52.158Z,98826.23
2017-12-10T03:38:25.531Z,98824.05
2017-12-10T03:40:59.396Z,98816.59
2017-12-10T03:43:33.046Z,98806.77
2017-12-10T03:46:07.199Z,98800.70
2017-12-10T03:48:40.704Z,98791.83
2017-12-10T03:51:14.208Z,98784.89
2017-12-10T03:53:47.673Z,98773.95
2017-12-10T03:56:21.459Z,98773.50
2017-12-10T03:58:55.574Z,98763.02
2017-12-10T04:01:29.384Z,98762.58
2017-12-10T04:04:02.766Z,98754.56
2017-12-10T04:06:37.392Z,98750.63
2017-12-10T04:09:10.838Z,98750.80
2017-12-10T04:11:44.310Z,98733.41
2017-12-10T04:14:17.752Z,98723.98
2017-12-10T04:16:51.526Z,98722.38
2017-12-10T04:19:25.003Z,98711.38
2017-12-10T04:21:58.891Z,98706.53
2017-12-10T04:24:32.268Z,98706.20
2017-12-10T04:27:05.747Z,98703.94
2017-12-10T04:29:40.713Z,98705.23
2017-12-10T04:32:14.751Z,98708.25
2017-12-10T04:34:46.405Z,98701.77
2017-12-10T04:37:19.839Z,98702.20
2017-12-10T04:39:52.424Z,98697.48
2017-12-10T04:42:26.648Z,98700.63
2017-12-10T04:44:58.267Z,98691.44
2017-12-10T04:47:31.076Z,98689.80
2017-12-10T04:50:05.255Z,98689.69
2017-12-10T04:52:37.949Z,98684.27
2017-12-10T04:55:11.334Z,98678.98
2017-12-10T04:57:43.913Z,98670.73
2017-12-10T05:00:17.657Z,98665.09
2017-12-10T05:02:51.976Z,98660.66
2017-12-10T05:05:27.506Z,98650.34
2017-12-10T05:08:01.342Z,98636.55
2017-12-10T05:10:34.272Z,98638.05
2017-12-10T05:13:07.047Z,98633.83
2017-12-10T05:15:40.563Z,98626.77
2017-12-10T05:18:16.183Z,98614.98
2017-12-10T05:20:48.183Z,98607.56
2017-12-10T05:23:20.433Z,98604.19
2017-12-10T05:25:53.408Z,98600.41
2017-12-10T05:28:27.829Z,98579.97
2017-12-10T05:31:00.928Z,98568.03
2017-12-10T05:33:35.284Z,98559.05
2017-12-10T05:36:09.813Z,98555.22
2017-12-10T05:38:44.040Z,98557.89
2017-12-10T05:41:18.602Z,98545.35
2017-12-10T05:43:50.317Z,98540.30
2017-12-10T05:46:23.470Z,98525.44
2017-12-10T05:48:55.238Z,98517.14
2017-12-10T05:51:29.408Z,98502.88
2017-12-10T05:54:03.583Z,98498.53
2017-12-10T05:56:39.170Z,98492.30
2017-12-10T05:59:12.653Z,98475.09
2017-12-10T06:01:44.395Z,98472.11
2017-12-10T06:04:17.850Z,98460.04
2017-12-10T06:06:49.520Z,98448.95
2017-12-10T06:09:23.307Z,98435.41
2017-12-10T06:11:57.314Z,98422.94
2017-12-10T06:14:30.801Z,98405.05
2017-12-10T06:17:03.305Z,98401.81
2017-12-10T06:19:37.763Z,98391.55
2017-12-10T06:22:12.811Z,98369.41
2017-12-10T06:24:46.320Z,98371.65
2017-12-10T06:27:18.821Z,98369.30
2017-12-10T06:29:51.305Z,98363.26
2017-12-10T06:32:25.502Z,98345.78
2017-12-10T06:34:58.319Z,98341.05
2017-12-10T06:37:31.846Z,98324.41
2017-12-10T06:40:05.243Z,98312.07
2017-12-10T06:42:39.196Z,98315.70
2017-12-10T06:45:15.128Z,98298.92
2017-12-10T06:47:48.612Z,98289.44
2017-12-10T06:50:22.999Z,98276.72
2017-12-10T06:52:56.466Z,98274.67
2017-12-10T06:55:29.893Z,98271.84
2017-12-10T06:58:03.353Z,98264.66
2017-12-10T07:00:37.040Z,98255.59
2017-12-10T07:03:10.625Z,98251.25
2017-12-10T07:05:44.032Z,98251.26
2017-12-10T07:08:17.600Z,98242.31
2017-12-10T07:10:51.319Z,98238.67
2017-12-10T07:13:25.135Z,98244.30
2017-12-10T07:15:58.859Z,98233.32
2017-12-10T07:18:32.710Z,98230.09
2017-12-10T07:21:06.212Z,98230.09
2017-12-10T07:23:39.976Z,98230.34
2017-12-10T07:26:13.353Z,98225.23
2017-12-10T07:28:45.889Z,98210.09
2017-12-10T07:31:19.574Z,98201.05
2017-12-10T07:33:53.687Z,98188.30
2017-12-10T07:36:27.095Z,98180.06
2017-12-10T07:39:00.921Z,98170.73
2017-12-10T07:41:39.329Z,98165.58
2017-12-10T07:44:13.080Z,98168.67
2017-12-10T07:46:46.814Z,98154.47
2017-12-10T07:49:20.616Z,98138.34
2017-12-10T07:51:54.065Z,98126.17
2017-12-10T07:54:27.804Z,98115.88
2017-12-10T07:57:01.309Z,98113.56
2017-12-10T07:59:34.869Z,98105.04
2017-12-10T08:02:08.584Z,98095.98
2017-12-10T08:04:43.212Z,98081.14
2017-12-10T08:07:16.869Z,98071.67
2017-12-10T08:09:51.310Z,98061.75
2017-12-10T08:12:24.575Z,98052.58
2017-12-10T08:14:57.999Z,98049.69
2017-12-10T08:17:32.088Z,98034.61
2017-12-10T08:20:06.030Z,98013.00
2017-12-10T08:22:39.594Z,98008.67
2017-12-10T08:25:13.420Z,97997.19
2017-12-10T08:27:48.352Z,97993.26
2017-12-10T08:30:23.370Z,97980.42
2017-12-10T08:32:57.143Z,97969.04
2017-12-10T08:35:31.102Z,97960.59
2017-12-10T08:38:04.579Z,97936.23
2017-12-10T08:40:38.105Z,97933.65
2017-12-10T08:43:11.619Z,97923.25
2017-12-10T08:45:45.320Z,97910.34
2017-12-10T08:48:18.863Z,97916.33
2017-12-10T08:50:53.373Z,97900.69
2017-12-10T08:53:26.864Z,97889.16
2017-12-10T08:56:08.104Z,97869.58
2017-12-10T08:58:41.593Z,97864.28
2017-12-10T09:01:15.307Z,97842.42
2017-12-10T09:03:49.585Z,97832.11
2017-12-10T09:06:23.288Z,97818.53
2017-12-10T09:08:56.809Z,97801.70
2017-12-10T09:11:30.380Z,97789.11
2017-12-10T09:14:03.708Z,97785.34
2017-12-10T09:16:37.685Z,97773.97
2017-12-10T09:19:11.337Z,97745.48
2017-12-10T09:21:45.772Z,97723.44
2017-12-10T09:24:19.280Z,97719.76
2017-12-10T09:26:53.484Z,97702.26
2017-12-10T09:29:27.202Z,97684.39
2017-12-10T09:32:01.763Z,97663.91
2017-12-10T09:34:35.347Z,97641.13
2017-12-10T09:37:09.051Z,97629.92
2017-12-10T09:39:42.545Z,97620.55
2017-12-10T09:42:16.076Z,97602.73
2017-12-10T09:44:51.096Z,97601.23
2017-12-10T09:47:25.500Z,97594.00
2017-12-10T09:49:58.978Z,97584.08
2017-12-10T09:52:32.496Z,97581.94
2017-12-10T09:55:06.065Z,97560.39
2017-12-10T09:57:39.855Z,97558.72
2017-12-10T10:00:16.030Z,97549.83
2017-12-10T10:02:50.878Z,97536.12
2017-12-10T10:05:24.360Z,97526.84
2017-12-10T10:07:57.889Z,97508.61
2017-12-10T10:10:31.732Z,97484.66
2017-12-10T10:13:05.319Z,97464.13
2017-12-10T10:15:39.187Z,97450.53
2017-12-10T10:18:13.173Z,97435.47
2017-12-10T10:20:47.764Z,97429.45
2017-12-10T10:23:21.572Z,97410.35
2017-12-10T10:25:55.093Z,97397.70
2017-12-10T10:28:28.881Z,97388.77
2017-12-10T10:31:02.527Z,97368.62
2017-12-10T10:33:36.044Z,97344.00
2017-12-10T10:36:09.532Z,97320.14
2017-12-10T10:38:43.890Z,97301.29
2017-12-10T10:41:17.446Z,97286.88
2017-12-10T10:43:50.931Z,97270.39
2017-12-10T10:46:24.535Z,97255.48
2017-12-10T10:48:58.557Z,97240.24
2017-12-10T10:51:32.451Z,97224.94
2017-12-10T10:54:06.270Z,97209.80
2017-12-10T10:56:39.755Z,97195.73
2017-12-10T10:59:13.279Z,97199.45
2017-12-10T11:01:47.693Z,97184.48
2017-12-10T11:04:21.536Z,97166.13
2017-12-10T11:06:54.983Z,97146.83
2017-12-10T11:09:28.837Z,97129.30
2017-12-10T11:12:02.784Z,97114.58
2017-12-10T11:14:36.373Z,97101.05
2017-12-10T11:17:10.011Z,97096.55
2017-12-10T11:19:44.048Z,97079.78
2017-12-10T11:22:17.539Z,97076.42
2017-12-10T11:24:52.257Z,97064.89
2017-12-10T11:27:26.612Z,97053.07
2017-12-10T11:30:03.321Z,97037.52
2017-12-10T11:32:36.939Z,97036.17
2017-12-10T11:35:11.068Z,97019.06
2017-12-10T11:37:45.411Z,97016.34
2017-12-10T11:40:18.893Z,96998.77
2017-12-10T11:42:53.302Z,97001.30
2017-12-10T11:45:27.382Z,97002.97
2017-12-10T11:48:00.896Z,96999.14
2017-12-10T11:50:36.587Z,96996.86
2017-12-10T11:53:10.153Z,96984.79
2017-12-10T11:55:44.418Z,96980.57
2017-12-10T11:58:17.977Z,96973.76
2017-12-10T12:00:53.426Z,96970.45
2017-12-10T12:03:27.216Z,96954.13
2017-12-10T12:06:00.925Z,96943.30
2017-12-10T12:08:34.425Z,96945.92
2017-12-10T12:11:07.970Z,96927.70
2017-12-10T12:13:41.525Z,96922.77
2017-12-10T12:16:15.723Z,96902.64
2017-12-10T12:18:49.385Z,96899.35
2017-12-10T12:21:23.399Z,96864.70
2017-12-10T12:23:56.969Z,96856.78
2017-12-10T12:26:30.771Z,96833.81
2017-12-10T12:29:04.310Z,96820.43
2017-12-10T12:31:38.471Z,96801.91
2017-12-10T12:34:12.078Z,96798.91
2017-12-10T12:36:56.325Z,96781.19
2017-12-10T12:39:29.872Z,96771.13
2017-12-10T12:42:03.762Z,96765.48
2017-12-10T12:44:37.407Z,96758.44
2017-12-10T12:47:11.031Z,96747.13
2017-12-10T12:49:45.348Z,96731.05
2017-12-10T12:52:18.861Z,96717.63
2017-12-10T12:54:52.923Z,96736.02
2017-12-10T12:57:26.421Z,96726.27
2017-12-10T12:59:59.869Z,96719.08
2017-12-10T13:02:33.744Z,96705.48
2017-12-10T13:05:07.190Z,96695.22
2017-12-10T13:07:40.670Z,96690.23
2017-12-10T13:10:14.252Z,96699.11
2017-12-10T13:12:48.390Z,96700.58
2017-12-10T13:15:22.508Z,96702.42
2017-12-10T13:17:56.960Z,96692.42
2017-12-10T13:20:30.589Z,96700.94
2017-12-10T13:23:04.094Z,96684.03
2017-12-10T13:25:37.786Z,96682.61
2017-12-10T13:28:11.327Z,96680.16
2017-12-10T13:30:44.694Z,96667.44
2017-12-10T13:33:18.224Z,96660.42
2017-12-10T13:35:52.023Z,96654.06
2017-12-10T13:38:25.549Z,96655.85
2017-12-10T13:40:59.051Z,96674.09
2017-12-10T13:43:32.586Z,96685.50
2017-12-10T13:46:06.475Z,96682.12
2017-12-10T13:48:40.507Z,96672.92
2017-12-10T13:51:14.347Z,96648.22
2017-12-10T13:53:48.514Z,96655.75
2017-12-10T13:56:21.987Z,96640.92
2017-12-10T13:58:55.574Z,96637.48
2017-12-10T14:01:30.476Z,96644.38
2017-12-10T14:04:11.785Z,96638.28
2017-12-10T14:06:45.082Z,96632.86
2017-12-10T14:09:18.418Z,96633.80
2017-12-10T14:11:51.675Z,96641.29
2017-12-10T14:14:24.980Z,96645.29
2017-12-10T14:16:59.019Z,96636.65
2017-12-10T14:19:32.547Z,96630.67
2017-12-10T14:22:07.069Z,96622.18
2017-12-10T14:24:40.617Z,96619.61
2017-12-10T14:27:13.843Z,96615.00
2017-12-10T14:29:47.162Z,96621.50
2017-12-10T14:32:18.973Z,96629.85
2017-12-10T14:34:53.037Z,96637.77
2017-12-10T14:37:26.396Z,96645.51
2017-12-10T14:40:00.645Z,96638.77
2017-12-10T14:42:33.893Z,96638.59
2017-12-10T14:45:07.425Z,96622.45
2017-12-10T14:47:40.968Z,96619.03
2017-12-10T14:50:14.293Z,96617.29
2017-12-10T14:52:47.521Z,96605.66
2017-12-10T14:55:20.810Z,96600.66
2017-12-10T14:57:54.072Z,96619.52
2017-12-10T15:00:27.677Z,96621.17
2017-12-10T15:03:00.965Z,96602.34
2017-12-10T15:05:35.003Z,96600.55
2017-12-10T15:08:08.230Z,96604.43
2017-12-10T15:10:41.550Z,96607.14
2017-12-10T15:13:14.758Z,96620.95
2017-12-10T15:15:48.042Z,96628.16
2017-12-10T15:21:21.391Z,96626.44
2017-12-10T15:23:55.635Z,96616.48
2017-12-10T15:26:28.925Z,96620.88
2017-12-10T15:29:02.593Z,96644.02
2017-12-10T15:31:36.023Z,96639.75
2017-12-10T15:34:09.785Z,96646.57
2017-12-10T15:36:44.002Z,96648.16
2017-12-10T15:39:17.707Z,96661.59
2017-12-10T15:41:51.488Z,96641.23
2017-12-10T15:44:25.624Z,96644.22
2017-12-10T15:46:59.947Z,96649.00
2017-12-10T15:49:33.752Z,96630.46
2017-12-10T15:52:07.165Z,96630.23
2017-12-10T16:00:49.157Z,96626.91
2017-12-10T16:03:22.095Z,96633.19
2017-12-10T16:05:56.427Z,96640.72
2017-12-10T16:08:29.678Z,96622.29
2017-12-10T16:11:05.373Z,96623.37
2017-12-10T16:13:37.304Z,96618.23
2017-12-10T16:16:12.073Z,96615.75
2017-12-10T16:18:43.671Z,96609.14
2017-12-10T16:21:16.070Z,96604.78
2017-12-10T16:23:48.931Z,96615.58
2017-12-10T16:26:20.382Z,96613.20
2017-12-10T16:28:51.859Z,96612.60
2017-12-10T16:31:24.075Z,96611.95
2017-12-10T16:33:56.975Z,96586.67
2017-12-10T16:36:28.406Z,96583.76
2017-12-10T16:39:00.278Z,96587.96
2017-12-10T16:41:31.768Z,96594.09
2017-12-10T16:44:03.570Z,96590.20
2017-12-10T16:46:35.353Z,96595.46
2017-12-10T16:49:08.061Z,96589.05
2017-12-10T16:51:40.732Z,96603.45
2017-12-10T16:54:12.247Z,96592.50
2017-12-10T16:56:43.683Z,96593.74
2017-12-10T16:59:15.460Z,96591.02
2017-12-10T17:01:47.264Z,96600.57
2017-12-10T17:04:19.488Z,96596.77
2017-12-10T17:06:51.851Z,96605.73
2017-12-10T17:09:24.258Z,96614.70
2017-12-10T17:11:56.515Z,96592.13
2017-12-10T17:14:28.943Z,96603.98
2017-12-10T17:17:01.352Z,96582.36
2017-12-10T17:19:33.170Z,96592.53
2017-12-10T17:22:04.466Z,96586.17
2017-12-10T17:24:35.974Z,96587.30
2017-12-10T17:27:07.776Z,96579.03
2017-12-10T17:29:39.326Z,96583.16
2017-12-10T17:32:11.200Z,96545.17
2017-12-10T17:34:43.046Z,96553.14
2017-12-10T17:37:14.593Z,96551.68
2017-12-10T17:39:47.056Z,96558.78
2017-12-10T17:42:18.531Z,96567.95
2017-12-10T17:44:49.839Z,96557.13
2017-12-10T17:47:22.284Z,96551.28
2017-12-10T17:49:54.063Z,96549.60
2017-12-10T17:52:25.627Z,96562.97
2017-12-10T17:54:57.463Z,96559.35
2017-12-10T17:57:28.711Z,96553.05
2017-12-10T18:00:00.554Z,96553.05
2017-12-10T18:02:31.847Z,96565.22
2017-12-10T18:05:04.553Z,96557.09
2017-12-10T18:07:36.956Z,96549.52
2017-12-10T18:10:08.798Z,96561.38
2017-12-10T18:12:40.338Z,96557.09
2017-12-10T18:15:13.963Z,96541.33
2017-12-10T18:17:46.549Z,96548.72
2017-12-10T18:20:18.148Z,96557.02
2017-12-10T18:22:49.674Z,96563.60
2017-12-10T18:25:22.512Z,96565.47
2017-12-10T18:27:54.018Z,96561.66
2017-12-10T18:30:25.923Z,96556.07
2017-12-10T18:32:57.734Z,96560.89
2017-12-10T18:35:29.464Z,96560.89
2017-12-10T18:38:01.964Z,96558.11
2017-12-10T18:40:33.544Z,96539.34
2017-12-10T18:43:05.423Z,96533.72
2017-12-10T18:45:38.264Z,96538.98
2017-12-10T18:48:10.037Z,96535.36
2017-12-10T18:50:42.190Z,96547.07
2017-12-10T18:53:14.051Z,96555.38
2017-12-10T18:55:46.459Z,96552.11
2017-12-10T18:58:19.055Z,96557.24
2017-12-10T19:00:50.760Z,96566.05
2017-12-10T19:03:22.629Z,96558.67
2017-12-10T19:05:54.212Z,96563.49
2017-12-10T19:08:25.704Z,96569.59
2017-12-10T19:10:57.261Z,96566.38
2017-12-10T19:13:28.787Z,96570.55
2017-12-10T19:16:00.488Z,96564.37
2017-12-10T19:18:32.862Z,96563.56
2017-12-10T19:21:04.991Z,96559.06
2017-12-10T19:23:36.502Z,96572.41
2017-12-10T19:26:08.103Z,96569.30
2017-12-10T19:28:39.735Z,96567.62
2017-12-10T19:31:11.401Z,96563.34
2017-12-10T19:33:44.959Z,96559.61
2017-12-10T19:36:16.908Z,96557.77
2017-12-10T19:38:48.999Z,96551.47
2017-12-10T19:41:20.618Z,96542.56
2017-12-10T19:43:53.007Z,96538.70
2017-12-10T19:46:26.063Z,96524.21
2017-12-10T19:48:58.770Z,96513.49
2017-12-10T19:51:30.486Z,96519.70
2017-12-10T19:54:02.934Z,96519.88
2017-12-10T19:56:35.888Z,96526.80
2017-12-10T19:59:08.392Z,96523.69
2017-12-10T20:01:41.414Z,96524.65
2017-12-10T20:04:14.610Z,96512.39
2017-12-10T20:06:47.900Z,96515.50
2017-12-10T20:09:21.340Z,96520.61
2017-12-10T20:11:55.664Z,96515.52
2017-12-10T20:14:29.833Z,96509.23
2017-12-10T20:17:01.996Z,96507.00
2017-12-10T20:19:35.252Z,96498.48
2017-12-10T20:22:09.313Z,96497.41
2017-12-10T20:24:41.823Z,96495.60
2017-12-10T20:27:14.379Z,96481.86
2017-12-10T20:29:47.137Z,96476.23
2017-12-10T20:32:20.301Z,96481.42
2017-12-10T20:34:51.804Z,96482.19
2017-12-10T20:37:23.370Z,96482.89
2017-12-10T20:39:54.688Z,96478.28
2017-12-10T20:42:27.451Z,96483.84
2017-12-10T20:44:58.968Z,96483.84
2017-12-10T20:47:30.590Z,96482.97
2017-12-10T20:50:02.112Z,96487.13
2017-12-10T20:52:33.663Z,96473.75
2017-12-10T20:55:05.128Z,96457.52
2017-12-10T20:57:36.788Z,96457.88
2017-12-10T21:00:09.194Z,96456.94
2017-12-10T21:02:41.889Z,96450.22
2017-12-10T21:05:13.492Z,96444.61
2017-12-10T21:07:45.423Z,96445.43
2017-12-10T21:10:18.151Z,96461.52
2017-12-10T21:12:50.570Z,96452.34
2017-12-10T21:15:22.022Z,96459.91
2017-12-10T21:17:55.381Z,96460.20
2017-12-10T21:20:29.856Z,96455.83
2017-12-10T21:23:01.670Z,96443.25
2017-12-10T21:25:34.138Z,96443.32
2017-12-10T21:28:08.706Z,96458.83
2017-12-10T21:30:42.154Z,96440.94
2017-12-10T21:33:16.492Z,96455.02
2017-12-10T21:35:50.236Z,96482.19
2017-12-10T21:38:22.907Z,96500.13
2017-12-10T21:40:56.463Z,96522.38
2017-12-10T21:43:30.748Z,96521.31
2017-12-10T21:46:02.416Z,96525.25
2017-12-10T21:48:36.690Z,96518.05
2017-12-10T21:51:10.198Z,96507.30
2017-12-10T21:53:42.012Z,96507.38
2017-12-10T21:56:13.683Z,96515.18
2017-12-10T21:58:46.254Z,96522.23
2017-12-10T22:01:20.108Z,96538.33
2017-12-10T22:03:52.107Z,96551.31
2017-12-10T22:06:24.782Z,96552.16
2017-12-10T22:08:58.217Z,96570.08
2017-12-10T22:11:30.825Z,96569.23
2017-12-10T22:14:05.243Z,96580.39
2017-12-10T22:16:39.243Z,96575.64
2017-12-10T22:19:12.738Z,96553.28
2017-12-10T22:21:46.803Z,96545.24
2017-12-10T22:24:20.291Z,96555.45
2017-12-10T22:26:53.682Z,96553.50
2017-12-10T22:29:27.448Z,96559.90
2017-12-10T22:32:01.185Z,96566.62
2017-12-10T22:34:34.604Z,96575.09
2017-12-10T22:37:08.977Z,96572.79
2017-12-10T22:39:42.710Z,96577.50
2017-12-10T22:42:16.177Z,96584.34
2017-12-10T22:44:51.321Z,96579.98
2017-12-10T22:47:24.920Z,96570.20
2017-12-10T22:49:58.597Z,96589.78
2017-12-10T22:52:32.018Z,96594.65
2017-12-10T22:55:05.438Z,96604.05
2017-12-10T22:57:39.793Z,96617.45
2017-12-10T23:00:15.097Z,96621.04
2017-12-10T23:02:52.042Z,96627.87
2017-12-10T23:05:27.285Z,96642.99
2017-12-10T23:08:00.641Z,96655.61
2017-12-10T23:10:34.396Z,96659.27
2017-12-10T23:13:07.993Z,96671.72
2017-12-10T23:18:11.544Z,96674.98
2017-12-10T23:20:45.155Z,96672.42
2017-12-10T23:23:18.757Z,96684.24
2017-12-10T23:25:52.704Z,96678.02
2017-12-10T23:28:26.823Z,96677.64
2017-12-10T23:31:00.521Z,96685.52
2017-12-10T23:33:34.164Z,96681.05
2017-12-10T23:36:07.849Z,96687.28
2017-12-10T23:38:41.575Z,96686.30
2017-12-10T23:41:15.839Z,96682.73
2017-12-10T23:43:49.311Z,96690.06
2017-12-10T23:46:23.065Z,96678.12
2017-12-10T23:48:56.897Z,96682.84
2017-12-10T23:51:30.991Z,96679.50
2017-12-10T23:54:04.705Z,96683.89
2017-12-10T23:56:38.742Z,96686.50
2017-12-10T23:59:12.463Z,96692.02
